Time;durP1;ratioP1;P1;durP2;ratioP2;P2;SDS_P1;SDS_P2;PMS_P1;PMS_P2;Temp;Humidity;BMP_temperature;BMP_pressure;BME280_temperature;BME280_humidity;BME280_pressure;Samples;Min_cycle;Max_cycle;Signal;HPM_P1;HPM_P2
2021/10/06 00:01:59;;;;;;;5.95;2.15;;;11.30;99.90;;;;;;4994953;28;20027;-77
2021/10/06 00:04:25;;;;;;;7.30;1.90;;;11.30;99.90;;;;;;5015804;28;20061;-77
2021/10/06 00:06:51;;;;;;;6.03;1.85;;;11.30;99.90;;;;;;5000724;28;20030;-78
2021/10/06 00:09:16;;;;;;;5.68;1.60;;;11.30;99.90;;;;;;5000835;28;20030;-80
2021/10/06 00:11:42;;;;;;;4.35;1.27;;;11.30;99.90;;;;;;5010996;28;20033;-78
2021/10/06 00:14:09;;;;;;;6.60;1.40;;;11.30;99.90;;;;;;5008831;28;20109;-77
2021/10/06 00:16:35;;;;;;;6.18;1.30;;;11.30;99.90;;;;;;5002426;28;20030;-82
2021/10/06 00:19:01;;;;;;;3.88;0.90;;;11.30;99.90;;;;;;4996094;28;20034;-80
2021/10/06 00:21:26;;;;;;;3.95;0.88;;;11.20;99.90;;;;;;5000328;28;20492;-80
2021/10/06 00:23:52;;;;;;;4.28;0.60;;;11.20;99.90;;;;;;4998712;28;20037;-78
2021/10/06 00:26:18;;;;;;;6.43;0.80;;;11.20;99.90;;;;;;5005534;28;20033;-82
2021/10/06 00:28:43;;;;;;;5.05;1.13;;;11.20;99.90;;;;;;4996825;28;20134;-81
2021/10/06 00:31:09;;;;;;;4.80;0.80;;;11.20;99.90;;;;;;5005118;28;20040;-82
2021/10/06 00:33:34;;;;;;;3.85;0.68;;;11.20;99.90;;;;;;4999915;28;20053;-82
2021/10/06 00:36:00;;;;;;;3.78;1.27;;;11.20;99.90;;;;;;5003123;28;20031;-77
2021/10/06 00:38:26;;;;;;;10.45;0.70;;;11.30;99.90;;;;;;4997898;28;20515;-79
2021/10/06 00:40:53;;;;;;;8.27;0.80;;;11.30;99.90;;;;;;5002858;28;20117;-79
2021/10/06 00:43:18;;;;;;;3.65;0.50;;;11.30;99.90;;;;;;4996882;28;20044;-81
2021/10/06 00:45:44;;;;;;;5.15;0.65;;;11.40;99.90;;;;;;5008417;28;20531;-79
2021/10/06 00:48:10;;;;;;;3.58;0.60;;;11.40;99.90;;;;;;5007240;28;20488;-87
2021/10/06 00:50:36;;;;;;;6.70;0.70;;;11.40;99.90;;;;;;5005716;28;20051;-84
2021/10/06 00:53:05;;;;;;;3.75;0.50;;;11.40;99.90;;;;;;4998408;28;20105;-86
2021/10/06 00:55:31;;;;;;;4.03;0.40;;;11.40;99.90;;;;;;5003498;28;20114;-82
2021/10/06 00:57:57;;;;;;;6.18;1.25;;;11.40;99.90;;;;;;5002639;28;20105;-89
2021/10/06 01:00:22;;;;;;;4.43;0.90;;;11.40;99.90;;;;;;5001683;28;20026;-89
2021/10/06 01:02:48;;;;;;;8.43;0.95;;;11.40;99.90;;;;;;4997058;28;20026;-89
2021/10/06 01:05:14;;;;;;;4.72;0.60;;;11.30;99.90;;;;;;5005409;28;20089;-77
2021/10/06 01:07:39;;;;;;;5.28;0.70;;;11.30;99.90;;;;;;5008617;28;20086;-80
2021/10/06 01:10:08;;;;;;;13.65;1.75;;;11.30;99.90;;;;;;5000175;28;20399;-78
2021/10/06 01:12:35;;;;;;;6.80;0.60;;;11.30;99.90;;;;;;5009944;28;20030;-84
2021/10/06 01:15:02;;;;;;;4.70;0.73;;;11.20;99.90;;;;;;4998988;28;20030;-79
2021/10/06 01:17:28;;;;;;;7.13;1.23;;;11.30;99.90;;;;;;5007063;28;20241;-81
2021/10/06 01:19:53;;;;;;;7.68;0.55;;;11.30;99.90;;;;;;5014396;28;20057;-82
2021/10/06 01:22:19;;;;;;;6.82;0.60;;;11.30;99.90;;;;;;4997769;28;20073;-81
2021/10/06 01:24:44;;;;;;;3.42;0.50;;;11.30;99.90;;;;;;5002680;28;20035;-81
2021/10/06 01:27:10;;;;;;;3.95;0.55;;;11.40;99.90;;;;;;5007447;28;20065;-76
2021/10/06 01:29:37;;;;;;;4.10;0.55;;;11.40;99.90;;;;;;5000531;28;20030;-82
2021/10/06 01:32:14;;;;;;;8.07;0.65;;;11.40;99.90;;;;;;5011477;28;20049;-77
2021/10/06 01:34:40;;;;;;;3.97;0.60;;;11.40;99.90;;;;;;5000829;28;20042;-79
2021/10/06 01:37:06;;;;;;;6.28;0.65;;;11.40;99.90;;;;;;4998260;28;20068;-83
2021/10/06 01:39:31;;;;;;;4.93;0.65;;;11.40;99.90;;;;;;5014680;28;20049;-88
2021/10/06 01:41:57;;;;;;;5.90;0.98;;;11.40;99.90;;;;;;4998119;28;20022;-79
2021/10/06 01:44:22;;;;;;;4.90;0.50;;;11.40;99.90;;;;;;5011465;28;20031;-85
2021/10/06 01:46:50;;;;;;;6.10;0.90;;;11.40;99.90;;;;;;4995308;28;20046;-81
2021/10/06 01:49:15;;;;;;;2.88;0.60;;;11.30;99.90;;;;;;4999848;28;20068;-85
2021/10/06 01:51:41;;;;;;;5.30;0.60;;;11.30;99.90;;;;;;5001166;28;20053;-85
2021/10/06 01:54:07;;;;;;;5.28;0.63;;;11.30;99.90;;;;;;5005810;28;20535;-81
2021/10/06 01:56:33;;;;;;;5.15;0.80;;;11.30;99.90;;;;;;5003638;28;20436;-88
2021/10/06 01:59:00;;;;;;;7.22;0.70;;;11.30;99.90;;;;;;5003762;28;20061;-88
2021/10/06 02:01:25;;;;;;;5.90;0.73;;;11.30;99.90;;;;;;4999742;28;20034;-81
2021/10/06 02:03:51;;;;;;;3.63;0.70;;;11.30;99.90;;;;;;4995383;28;20030;-85
2021/10/06 02:06:17;;;;;;;5.13;0.60;;;11.30;99.90;;;;;;5002043;28;20057;-84
2021/10/06 02:08:42;;;;;;;8.45;0.80;;;11.30;99.90;;;;;;4999623;28;20031;-85
2021/10/06 02:11:08;;;;;;;4.75;1.00;;;11.30;99.90;;;;;;4998716;28;20026;-85
2021/10/06 02:13:33;;;;;;;7.30;1.02;;;11.20;99.90;;;;;;5003180;28;20033;-82
2021/10/06 02:15:59;;;;;;;3.55;0.50;;;11.20;99.90;;;;;;4994146;28;20026;-78
2021/10/06 02:18:25;;;;;;;5.38;0.80;;;11.10;99.90;;;;;;4995514;28;20026;-83
2021/10/06 02:20:51;;;;;;;7.50;0.70;;;11.10;99.90;;;;;;5002768;28;20430;-86
2021/10/06 02:23:16;;;;;;;5.75;0.50;;;11.20;99.90;;;;;;5020038;28;20022;-82
2021/10/06 02:25:42;;;;;;;3.83;0.52;;;11.20;99.90;;;;;;5007461;28;20128;-82
2021/10/06 02:28:08;;;;;;;8.05;1.00;;;11.10;99.90;;;;;;4996126;28;20053;-78
2021/10/06 02:30:34;;;;;;;5.10;0.77;;;11.20;99.90;;;;;;5001532;28;20041;-82
2021/10/06 02:33:00;;;;;;;4.97;0.63;;;11.10;99.90;;;;;;4996657;28;20050;-76
2021/10/06 02:35:25;;;;;;;12.65;0.93;;;11.10;99.90;;;;;;4998054;28;20068;-85
2021/10/06 02:37:51;;;;;;;7.00;0.50;;;11.20;99.90;;;;;;5003990;28;20033;-83
2021/10/06 02:40:17;;;;;;;4.03;0.60;;;11.10;99.90;;;;;;4996686;28;20027;-79
2021/10/06 02:42:45;;;;;;;6.45;0.88;;;11.20;99.90;;;;;;4995110;28;20455;-78
2021/10/06 02:45:12;;;;;;;8.93;0.95;;;11.20;99.90;;;;;;4998101;28;20034;-81
2021/10/06 02:47:38;;;;;;;7.90;0.90;;;11.20;99.90;;;;;;4992418;28;20129;-87
2021/10/06 02:50:06;;;;;;;6.00;0.70;;;11.20;99.90;;;;;;5011515;28;20062;-85
2021/10/06 02:52:32;;;;;;;4.70;0.82;;;11.20;99.90;;;;;;5002742;28;20054;-85
2021/10/06 02:54:58;;;;;;;7.32;1.05;;;11.20;99.90;;;;;;5015995;28;20030;-78
2021/10/06 02:57:23;;;;;;;5.85;0.70;;;11.20;99.90;;;;;;4994224;28;20027;-82
2021/10/06 02:59:49;;;;;;;5.95;0.90;;;11.20;99.90;;;;;;4999582;28;20030;-82
2021/10/06 03:02:14;;;;;;;11.50;0.70;;;11.10;99.90;;;;;;4992973;28;20092;-82
2021/10/06 03:04:40;;;;;;;3.65;0.55;;;11.10;99.90;;;;;;4996733;28;20133;-85
2021/10/06 03:07:06;;;;;;;5.30;0.90;;;11.10;99.90;;;;;;4996825;28;20436;-76
2021/10/06 03:09:31;;;;;;;7.20;0.80;;;11.10;99.90;;;;;;4996835;28;20069;-83
2021/10/06 03:11:57;;;;;;;5.03;0.60;;;11.10;99.90;;;;;;4993291;28;20049;-86
2021/10/06 03:14:22;;;;;;;5.20;0.60;;;11.10;99.90;;;;;;5005607;28;20038;-85
2021/10/06 03:16:48;;;;;;;6.68;0.85;;;11.10;99.90;;;;;;5002252;28;20130;-81
2021/10/06 03:19:13;;;;;;;10.18;0.98;;;11.10;99.90;;;;;;4995846;28;20102;-80
2021/10/06 03:21:39;;;;;;;7.40;0.88;;;11.10;99.90;;;;;;4998043;28;20026;-83
2021/10/06 03:24:05;;;;;;;5.13;0.70;;;11.10;99.90;;;;;;4997714;28;20030;-84
2021/10/06 03:26:30;;;;;;;5.82;0.80;;;11.10;99.90;;;;;;4996476;28;20542;-82
2021/10/06 03:28:57;;;;;;;6.18;0.73;;;11.10;99.90;;;;;;4997236;28;20042;-84
2021/10/06 03:31:22;;;;;;;6.25;0.60;;;11.10;99.90;;;;;;5001099;28;20026;-83
2021/10/06 03:33:48;;;;;;;6.82;0.70;;;11.10;99.90;;;;;;4999951;28;20033;-84
2021/10/06 03:36:13;;;;;;;5.60;0.70;;;11.10;99.90;;;;;;4996484;28;20133;-83
2021/10/06 03:38:39;;;;;;;5.28;0.60;;;11.00;99.90;;;;;;5001954;28;20045;-86
2021/10/06 03:41:05;;;;;;;3.67;0.50;;;11.00;99.90;;;;;;5000618;28;20165;-81
2021/10/06 03:43:31;;;;;;;5.90;0.80;;;11.00;99.90;;;;;;5002851;28;20018;-79
2021/10/06 03:45:56;;;;;;;6.10;0.50;;;11.00;99.90;;;;;;5006232;28;20579;-77
2021/10/06 03:48:22;;;;;;;2.90;0.47;;;11.00;99.90;;;;;;5002736;28;20042;-81
2021/10/06 03:50:47;;;;;;;6.20;0.63;;;11.00;99.90;;;;;;5001347;28;20027;-81
2021/10/06 03:53:13;;;;;;;8.65;0.60;;;11.00;99.90;;;;;;4993851;28;20481;-80
2021/10/06 03:55:40;;;;;;;5.50;0.50;;;11.00;99.90;;;;;;4998083;28;20176;-78
2021/10/06 03:58:06;;;;;;;3.78;0.50;;;11.00;99.90;;;;;;5002226;28;20034;-84
2021/10/06 04:00:31;;;;;;;7.25;0.60;;;11.00;99.90;;;;;;5004567;28;20030;-81
2021/10/06 04:02:57;;;;;;;7.18;0.52;;;11.00;99.90;;;;;;5001093;28;20029;-77
2021/10/06 04:05:23;;;;;;;2.30;0.45;;;11.00;99.90;;;;;;5017226;28;20026;-82
2021/10/06 04:07:48;;;;;;;4.53;0.50;;;10.90;99.90;;;;;;5002317;28;20028;-79
2021/10/06 04:10:14;;;;;;;6.18;0.60;;;10.90;99.90;;;;;;5009397;28;20030;-76
2021/10/06 04:12:40;;;;;;;7.47;0.60;;;10.90;99.90;;;;;;5004823;28;20022;-77
2021/10/06 04:15:06;;;;;;;6.45;0.70;;;10.90;99.90;;;;;;4999797;28;20038;-78
2021/10/06 04:17:32;;;;;;;5.47;0.73;;;10.90;99.90;;;;;;5005017;28;20026;-79
2021/10/06 04:19:57;;;;;;;4.03;0.45;;;10.90;99.90;;;;;;5001148;28;20387;-84
2021/10/06 04:22:23;;;;;;;3.60;0.63;;;10.90;99.90;;;;;;5002130;28;20022;-79
2021/10/06 04:24:48;;;;;;;3.97;0.50;;;10.90;99.90;;;;;;5007149;28;20516;-78
2021/10/06 04:27:14;;;;;;;4.80;0.68;;;10.90;99.90;;;;;;5003247;28;20365;-81
2021/10/06 04:29:40;;;;;;;5.38;0.70;;;10.90;99.90;;;;;;5001401;28;20401;-76
2021/10/06 04:32:05;;;;;;;3.20;0.50;;;10.90;99.90;;;;;;5006020;28;20023;-84
2021/10/06 04:34:31;;;;;;;4.78;0.70;;;10.90;99.90;;;;;;5006455;28;20057;-78
2021/10/06 04:36:56;;;;;;;5.75;0.70;;;10.80;99.90;;;;;;4994022;28;20477;-76
2021/10/06 04:39:22;;;;;;;4.85;0.70;;;10.80;99.90;;;;;;4998699;28;20081;-76
2021/10/06 04:41:47;;;;;;;4.25;0.60;;;10.80;99.90;;;;;;5004101;28;20034;-77
2021/10/06 04:44:13;;;;;;;6.45;0.90;;;10.80;99.90;;;;;;5002629;28;20044;-78
2021/10/06 04:46:39;;;;;;;8.93;1.20;;;10.80;99.90;;;;;;5005562;28;20037;-77
2021/10/06 04:49:04;;;;;;;4.95;0.60;;;10.80;99.90;;;;;;5005935;28;20037;-81
2021/10/06 04:51:30;;;;;;;5.22;0.65;;;10.80;99.90;;;;;;4995834;28;20030;-82
2021/10/06 04:53:56;;;;;;;3.17;0.60;;;10.80;99.90;;;;;;5006664;28;20456;-84
2021/10/06 04:56:21;;;;;;;5.38;1.15;;;10.80;99.90;;;;;;5000613;28;20120;-77
2021/10/06 04:58:47;;;;;;;3.38;0.80;;;10.80;99.90;;;;;;4998351;28;20038;-82
2021/10/06 05:01:13;;;;;;;4.00;0.60;;;10.80;99.90;;;;;;4996914;28;20022;-79
2021/10/06 05:03:38;;;;;;;8.13;0.88;;;10.80;99.90;;;;;;5004216;28;20026;-77
2021/10/06 05:06:04;;;;;;;9.20;1.30;;;10.80;99.90;;;;;;4999977;28;20030;-82
2021/10/06 05:08:29;;;;;;;5.10;0.80;;;10.80;99.90;;;;;;5001388;28;20049;-86
2021/10/06 05:10:55;;;;;;;5.82;0.80;;;10.80;99.90;;;;;;5014549;28;20380;-78
2021/10/06 05:13:21;;;;;;;8.88;0.80;;;10.80;99.90;;;;;;4996067;28;20677;-80
2021/10/06 05:15:47;;;;;;;8.00;0.77;;;10.80;99.90;;;;;;5002219;28;20049;-80
2021/10/06 05:18:12;;;;;;;5.03;1.55;;;10.80;99.90;;;;;;5000616;28;20033;-82
2021/10/06 05:20:38;;;;;;;6.55;1.00;;;10.80;99.90;;;;;;5001321;28;20530;-81
2021/10/06 05:23:03;;;;;;;5.55;0.70;;;10.80;99.90;;;;;;5002351;28;20373;-78
2021/10/06 05:25:29;;;;;;;5.80;0.90;;;10.80;99.90;;;;;;5000809;28;20365;-78
2021/10/06 05:27:56;;;;;;;7.20;1.45;;;10.80;99.90;;;;;;4996672;28;20103;-81
2021/10/06 05:30:22;;;;;;;7.90;1.15;;;10.80;99.90;;;;;;4998908;28;20090;-86
2021/10/06 05:32:49;;;;;;;5.60;1.00;;;10.80;99.90;;;;;;5002455;28;20038;-77
2021/10/06 05:35:15;;;;;;;6.65;1.05;;;10.80;99.90;;;;;;4999746;28;20059;-81
2021/10/06 05:37:41;;;;;;;5.25;0.80;;;10.80;99.90;;;;;;5000096;28;20559;-83
2021/10/06 05:40:07;;;;;;;6.80;1.45;;;10.80;99.90;;;;;;4999781;28;20022;-80
2021/10/06 05:42:33;;;;;;;8.65;0.93;;;10.80;99.90;;;;;;5003504;28;20096;-78
2021/10/06 05:44:59;;;;;;;6.15;1.23;;;10.70;99.90;;;;;;5002903;28;20504;-77
2021/10/06 05:47:24;;;;;;;4.50;1.23;;;10.80;99.90;;;;;;4998092;28;20140;-80
2021/10/06 05:49:51;;;;;;;6.38;1.33;;;10.70;99.90;;;;;;5000056;28;20038;-79
2021/10/06 05:52:16;;;;;;;7.30;1.23;;;10.70;99.90;;;;;;5003045;28;20827;-76
2021/10/06 05:54:42;;;;;;;5.78;1.00;;;10.70;99.90;;;;;;4997443;28;20029;-79
2021/10/06 05:57:08;;;;;;;8.45;1.20;;;10.80;99.90;;;;;;5005709;28;20471;-81
2021/10/06 05:59:34;;;;;;;7.47;1.38;;;10.80;99.90;;;;;;5005264;28;20052;-81
2021/10/06 06:02:00;;;;;;;6.72;1.77;;;10.80;99.90;;;;;;5000494;28;20019;-79
2021/10/06 06:04:27;;;;;;;6.65;1.48;;;10.80;99.90;;;;;;5002878;28;20061;-81
2021/10/06 06:06:53;;;;;;;8.30;1.30;;;10.70;99.90;;;;;;5008384;28;20026;-76
2021/10/06 06:09:21;;;;;;;8.10;1.70;;;10.70;99.90;;;;;;5008977;28;20037;-76
2021/10/06 06:11:47;;;;;;;5.63;1.27;;;10.80;99.90;;;;;;4997949;28;20022;-80
2021/10/06 06:14:13;;;;;;;8.57;1.88;;;10.80;99.90;;;;;;4998877;28;20033;-81
2021/10/06 06:16:38;;;;;;;5.68;1.00;;;10.80;99.90;;;;;;4995004;28;20508;-79
2021/10/06 06:19:04;;;;;;;7.50;2.00;;;10.70;99.90;;;;;;4996463;28;20032;-79
2021/10/06 06:21:30;;;;;;;4.57;1.20;;;10.80;99.90;;;;;;5010999;28;20040;-78
2021/10/06 06:23:56;;;;;;;5.30;1.05;;;10.70;99.90;;;;;;5009985;28;20065;-81
2021/10/06 06:26:22;;;;;;;3.25;1.13;;;10.70;99.90;;;;;;5004222;28;20485;-75
2021/10/06 06:28:47;;;;;;;5.88;1.38;;;10.70;99.90;;;;;;5003198;28;20038;-81
2021/10/06 06:31:13;;;;;;;6.82;1.60;;;10.70;99.90;;;;;;5009830;28;20392;-75
2021/10/06 06:33:42;;;;;;;3.22;1.23;;;10.70;99.90;;;;;;5013449;28;20048;-82
2021/10/06 06:36:09;;;;;;;4.22;1.40;;;10.60;99.90;;;;;;5004684;28;20025;-77
2021/10/06 06:38:36;;;;;;;4.88;1.75;;;10.60;99.90;;;;;;5011600;28;20056;-81
2021/10/06 06:41:02;;;;;;;6.18;2.05;;;10.60;99.90;;;;;;5008162;28;20092;-81
2021/10/06 06:43:27;;;;;;;4.68;1.38;;;10.70;99.90;;;;;;4998475;28;20464;-76
2021/10/06 06:45:53;;;;;;;7.75;1.67;;;10.60;99.90;;;;;;5007458;28;20065;-79
2021/10/06 06:48:22;;;;;;;4.20;1.73;;;10.60;99.90;;;;;;4995849;28;20054;-83
2021/10/06 06:50:57;;;;;;;4.97;1.38;;;10.60;99.90;;;;;;5008543;28;20034;-79
2021/10/06 06:53:27;;;;;;;5.10;1.83;;;10.60;99.90;;;;;;5013764;28;20050;-80
2021/10/06 06:55:55;;;;;;;6.80;1.35;;;10.60;99.90;;;;;;4996750;28;20061;-79
2021/10/06 06:58:20;;;;;;;6.32;1.65;;;10.60;99.90;;;;;;5010885;28;20037;-79
2021/10/06 07:00:55;;;;;;;5.20;1.40;;;10.70;99.90;;;;;;5007117;28;20096;-80
2021/10/06 07:03:21;;;;;;;8.98;1.55;;;10.70;99.90;;;;;;5023598;28;20032;-82
2021/10/06 07:05:49;;;;;;;6.72;1.25;;;10.80;99.90;;;;;;5000149;28;20022;-82
2021/10/06 07:08:14;;;;;;;3.70;1.17;;;10.80;99.90;;;;;;4995407;28;20025;-86
2021/10/06 07:10:40;;;;;;;4.32;1.65;;;10.90;99.90;;;;;;4996969;28;20038;-82
2021/10/06 07:13:06;;;;;;;7.65;1.65;;;10.90;99.90;;;;;;4993280;28;20465;-85
2021/10/06 07:15:32;;;;;;;4.00;1.38;;;10.90;99.90;;;;;;4993942;28;20054;-83
2021/10/06 07:17:58;;;;;;;9.15;1.60;;;11.00;99.90;;;;;;4993766;28;20096;-78
2021/10/06 07:20:24;;;;;;;5.68;1.35;;;11.00;99.90;;;;;;4998329;28;20093;-77
2021/10/06 07:22:50;;;;;;;4.85;1.35;;;11.00;99.90;;;;;;4993833;28;20022;-78
2021/10/06 07:25:16;;;;;;;2.47;1.00;;;11.00;99.90;;;;;;4992389;28;20113;-84
2021/10/06 07:27:42;;;;;;;4.60;1.35;;;11.00;99.90;;;;;;5006300;28;20105;-85
2021/10/06 07:30:09;;;;;;;6.32;1.60;;;11.00;99.90;;;;;;4994457;28;20129;-79
2021/10/06 07:32:34;;;;;;;3.00;1.40;;;11.00;99.90;;;;;;4999801;28;20014;-82
2021/10/06 07:35:00;;;;;;;4.75;1.50;;;11.00;99.90;;;;;;5005904;28;20033;-85
2021/10/06 07:37:26;;;;;;;5.90;1.63;;;11.10;99.90;;;;;;5002116;28;20018;-82
2021/10/06 07:39:52;;;;;;;3.72;1.70;;;11.10;99.90;;;;;;4994364;28;20089;-78
2021/10/06 07:42:17;;;;;;;6.88;1.88;;;11.20;99.90;;;;;;5011042;28;20077;-85
2021/10/06 07:44:43;;;;;;;2.90;1.63;;;11.30;99.90;;;;;;5012589;28;20084;-81
2021/10/06 07:47:09;;;;;;;4.38;1.58;;;11.30;99.90;;;;;;4977133;28;1024103;-84
2021/10/06 07:49:34;;;;;;;3.85;1.48;;;11.30;99.90;;;;;;5014257;28;20060;-79
2021/10/06 07:52:00;;;;;;;5.95;1.42;;;11.30;99.90;;;;;;5001777;28;20023;-79
2021/10/06 07:54:26;;;;;;;4.78;1.30;;;11.30;99.90;;;;;;4999880;28;20034;-84
2021/10/06 07:56:52;;;;;;;3.33;1.20;;;11.30;99.90;;;;;;4994030;28;20033;-89
2021/10/06 07:59:17;;;;;;;2.03;1.15;;;11.30;99.90;;;;;;5015874;28;20476;-79
2021/10/06 08:01:43;;;;;;;3.45;1.40;;;11.30;99.90;;;;;;5014280;28;20030;-90
2021/10/06 08:04:09;;;;;;;5.05;1.77;;;11.30;99.90;;;;;;5015942;28;20045;-79
2021/10/06 08:06:35;;;;;;;3.45;1.75;;;11.40;99.90;;;;;;5010636;28;20084;-90
2021/10/06 08:09:01;;;;;;;5.72;1.48;;;11.40;99.90;;;;;;5023397;28;20029;-79
2021/10/06 08:11:27;;;;;;;2.88;1.10;;;11.40;99.90;;;;;;5009151;28;20036;-89
2021/10/06 08:13:52;;;;;;;8.35;1.65;;;11.40;99.90;;;;;;5003541;28;20034;-88
2021/10/06 08:16:18;;;;;;;3.58;1.10;;;11.50;99.90;;;;;;5005251;28;20018;-87
2021/10/06 08:18:44;;;;;;;2.35;1.40;;;11.50;99.90;;;;;;5015827;28;20032;-78
2021/10/06 08:21:11;;;;;;;2.88;1.52;;;11.60;99.90;;;;;;5002859;28;20033;-85
2021/10/06 08:23:37;;;;;;;2.67;1.30;;;11.70;99.90;;;;;;4995835;28;20088;-85
2021/10/06 08:26:03;;;;;;;2.03;1.30;;;11.70;99.90;;;;;;5004267;28;20030;-80
2021/10/06 08:28:29;;;;;;;3.47;1.38;;;11.60;99.90;;;;;;4996344;28;20101;-78
2021/10/06 08:30:54;;;;;;;2.78;1.08;;;11.60;99.90;;;;;;5010578;28;20105;-77
2021/10/06 08:33:21;;;;;;;5.10;1.30;;;11.50;99.90;;;;;;5013922;28;20061;-78
2021/10/06 08:35:47;;;;;;;4.35;1.30;;;11.50;99.90;;;;;;5009978;28;20038;-79
2021/10/06 08:38:12;;;;;;;2.38;1.15;;;11.50;99.90;;;;;;5003844;28;20026;-77
2021/10/06 08:40:38;;;;;;;3.97;1.00;;;11.50;99.90;;;;;;5000208;28;20105;-78
2021/10/06 08:43:06;;;;;;;2.83;1.02;;;11.50;99.90;;;;;;4995386;28;20033;-80
2021/10/06 08:45:32;;;;;;;2.80;1.10;;;11.50;99.90;;;;;;5006114;28;20022;-81
2021/10/06 08:47:59;;;;;;;3.67;1.08;;;11.40;99.90;;;;;;5013567;28;20086;-83
2021/10/06 08:50:26;;;;;;;5.00;1.48;;;11.40;99.90;;;;;;5010781;28;20030;-78
2021/10/06 08:52:52;;;;;;;2.20;1.48;;;11.40;99.90;;;;;;5004610;28;20116;-81
2021/10/06 08:55:27;;;;;;;2.75;1.65;;;11.40;99.90;;;;;;5001942;28;20113;-82
2021/10/06 08:57:56;;;;;;;3.17;2.15;;;11.40;99.90;;;;;;5011763;28;20458;-82
2021/10/06 09:00:22;;;;;;;3.30;2.03;;;11.50;99.90;;;;;;5002230;28;20033;-82
2021/10/06 09:02:48;;;;;;;7.70;2.45;;;11.60;99.90;;;;;;4999794;28;20034;-80
2021/10/06 09:05:13;;;;;;;4.13;2.30;;;11.70;99.90;;;;;;5003776;28;20112;-82
2021/10/06 09:07:57;;;;;;;4.90;2.65;;;11.80;99.90;;;;;;5008228;28;20033;-79
2021/10/06 09:10:24;;;;;;;3.85;2.72;;;11.80;99.90;;;;;;5005109;28;20053;-76
2021/10/06 09:13:02;;;;;;;5.57;2.70;;;11.70;99.90;;;;;;5011598;28;20484;-83
2021/10/06 09:15:41;;;;;;;4.20;2.83;;;11.70;99.90;;;;;;5013053;28;20048;-79
2021/10/06 09:18:11;;;;;;;4.00;2.58;;;11.70;99.90;;;;;;5012813;28;20053;-81
2021/10/06 09:20:37;;;;;;;5.22;2.80;;;11.60;99.90;;;;;;5007201;28;20026;-79
2021/10/06 09:23:06;;;;;;;3.58;2.88;;;11.50;99.90;;;;;;5012078;28;20468;-79
2021/10/06 09:25:46;;;;;;;4.50;2.83;;;11.50;99.90;;;;;;5011900;28;20057;-79
2021/10/06 09:28:29;;;;;;;5.40;2.65;;;11.50;99.90;;;;;;4994510;28;20338;-79
2021/10/06 09:31:05;;;;;;;5.00;3.05;;;11.50;99.90;;;;;;4995039;28;20034;-78
2021/10/06 09:33:58;;;;;;;4.07;2.45;;;11.50;99.90;;;;;;4995639;28;20034;-76
2021/10/06 09:36:25;;;;;;;5.18;2.42;;;11.50;99.90;;;;;;5002921;28;20036;-79
2021/10/06 09:38:57;;;;;;;5.93;2.33;;;11.50;99.90;;;;;;5005390;28;20036;-80
2021/10/06 09:41:23;;;;;;;4.07;2.63;;;11.60;99.90;;;;;;4999801;28;20022;-83
2021/10/06 09:44:00;;;;;;;6.35;3.17;;;11.60;99.90;;;;;;4995218;28;20041;-77
2021/10/06 09:46:33;;;;;;;6.18;3.17;;;11.80;99.90;;;;;;4994372;28;20050;-78
2021/10/06 09:48:58;;;;;;;7.85;3.28;;;11.90;99.90;;;;;;4994384;28;20034;-80
2021/10/06 09:51:25;;;;;;;5.63;2.60;;;11.90;99.90;;;;;;4995774;28;20030;-76
2021/10/06 09:53:53;;;;;;;5.03;2.42;;;12.00;99.90;;;;;;4996272;28;20029;-80
2021/10/06 09:56:19;;;;;;;6.03;2.15;;;12.20;99.90;;;;;;4997146;28;20114;-79
2021/10/06 09:58:47;;;;;;;4.70;1.65;;;12.20;99.90;;;;;;5002218;28;20400;-85
2021/10/06 10:01:13;;;;;;;5.07;2.17;;;12.30;99.90;;;;;;4998067;28;20035;-79
2021/10/06 10:03:39;;;;;;;4.43;1.70;;;12.30;99.90;;;;;;4995531;28;20030;-84
2021/10/06 10:06:05;;;;;;;5.38;1.60;;;12.30;99.90;;;;;;5001138;28;20548;-82
2021/10/06 10:08:31;;;;;;;6.97;1.70;;;12.30;99.90;;;;;;5004367;28;20022;-80
2021/10/06 10:10:57;;;;;;;7.32;1.83;;;12.40;99.90;;;;;;5015143;28;20018;-83
2021/10/06 10:13:24;;;;;;;7.60;2.05;;;12.50;99.90;;;;;;5011782;28;20084;-83
2021/10/06 10:15:50;;;;;;;5.55;1.42;;;12.60;99.90;;;;;;5004071;28;20022;-79
2021/10/06 10:18:18;;;;;;;5.65;1.58;;;12.60;99.90;;;;;;5008488;28;20041;-78
2021/10/06 10:20:45;;;;;;;6.15;1.63;;;12.70;99.90;;;;;;5009264;28;20468;-82
2021/10/06 10:23:17;;;;;;;7.03;1.15;;;12.80;99.90;;;;;;5011047;28;20036;-76
2021/10/06 10:25:46;;;;;;;4.68;1.30;;;12.90;99.90;;;;;;5009871;28;20022;-82
2021/10/06 10:28:20;;;;;;;3.70;0.93;;;12.90;99.90;;;;;;5015616;28;20042;-83
2021/10/06 10:31:02;;;;;;;7.50;1.30;;;12.90;99.90;;;;;;5013875;28;20026;-85
2021/10/06 10:33:49;;;;;;;7.22;0.95;;;12.90;99.90;;;;;;5014649;28;20038;-79
2021/10/06 10:36:40;;;;;;;6.32;1.45;;;12.90;99.90;;;;;;5013909;28;20025;-77
2021/10/06 10:39:19;;;;;;;5.13;1.27;;;12.90;99.90;;;;;;5012833;28;20381;-79
2021/10/06 10:41:54;;;;;;;4.72;0.60;;;12.80;99.90;;;;;;5012967;28;20028;-80
2021/10/06 10:44:25;;;;;;;5.78;1.17;;;12.80;99.90;;;;;;5013383;28;20582;-80
2021/10/06 10:47:07;;;;;;;5.30;1.17;;;12.70;99.90;;;;;;5013636;28;20084;-83
2021/10/06 10:49:52;;;;;;;6.32;1.30;;;12.70;99.90;;;;;;5010106;28;20045;-81
2021/10/06 10:52:19;;;;;;;5.68;1.00;;;12.60;99.90;;;;;;4992683;28;20037;-84
2021/10/06 10:54:47;;;;;;;8.35;1.20;;;12.60;99.90;;;;;;5002638;28;20124;-78
2021/10/06 10:57:25;;;;;;;4.93;1.17;;;12.50;99.90;;;;;;5014051;28;20025;-80
2021/10/06 10:59:53;;;;;;;5.13;0.65;;;12.60;99.90;;;;;;4996946;28;20105;-77
2021/10/06 11:02:31;;;;;;;6.60;0.77;;;12.60;99.90;;;;;;4994643;28;20030;-80
2021/10/06 11:05:02;;;;;;;4.88;0.70;;;12.60;99.90;;;;;;5010502;28;20499;-83
2021/10/06 11:07:29;;;;;;;7.43;1.27;;;12.70;99.90;;;;;;4994947;28;20039;-82
2021/10/06 11:10:14;;;;;;;4.55;0.43;;;12.70;99.90;;;;;;4995104;28;20031;-81
2021/10/06 11:12:41;;;;;;;2.60;0.40;;;12.80;99.90;;;;;;4997523;28;20053;-81
2021/10/06 11:15:13;;;;;;;4.95;0.57;;;12.90;99.90;;;;;;5004544;28;20030;-82
2021/10/06 11:18:16;;;;;;;5.10;0.50;;;13.00;99.90;;;;;;4994738;28;20037;-80
2021/10/06 11:20:53;;;;;;;4.22;0.50;;;13.20;99.90;;;;;;5005027;28;20031;-81
2021/10/06 11:23:30;;;;;;;3.13;0.30;;;13.40;99.90;;;;;;4999419;28;20504;-82
2021/10/06 11:26:12;;;;;;;4.50;0.50;;;13.70;99.90;;;;;;4994501;28;20034;-81
2021/10/06 11:28:59;;;;;;;2.97;0.43;;;13.80;99.90;;;;;;4997235;28;20450;-81
2021/10/06 11:31:30;;;;;;;3.38;0.40;;;13.90;99.90;;;;;;5010443;28;20038;-80
2021/10/06 11:33:57;;;;;;;7.72;0.60;;;13.90;99.90;;;;;;4996297;28;20023;-80
2021/10/06 11:36:25;;;;;;;5.88;0.80;;;13.80;99.90;;;;;;4993964;28;20173;-79
2021/10/06 11:38:56;;;;;;;6.18;0.70;;;13.80;99.90;;;;;;4994894;28;20022;-79
2021/10/06 11:41:22;;;;;;;8.45;0.70;;;13.70;99.90;;;;;;4992978;28;20042;-81
2021/10/06 11:43:51;;;;;;;7.75;0.80;;;13.60;99.90;;;;;;4993623;28;20465;-80
2021/10/06 11:46:26;;;;;;;9.85;1.20;;;13.60;99.90;;;;;;4991939;28;20102;-79
2021/10/06 11:48:55;;;;;;;7.43;0.95;;;13.60;99.90;;;;;;4991495;28;20026;-80
2021/10/06 11:51:37;;;;;;;11.30;0.95;;;13.50;99.90;;;;;;4992617;28;20027;-81
2021/10/06 11:54:03;;;;;;;9.38;1.00;;;13.40;99.90;;;;;;4992557;28;20025;-80
2021/10/06 11:56:30;;;;;;;6.90;0.82;;;13.30;99.90;;;;;;4996508;28;20053;-80
2021/10/06 11:59:10;;;;;;;8.02;0.85;;;13.30;99.90;;;;;;5012668;28;20054;-82
2021/10/06 12:01:36;;;;;;;5.78;0.70;;;13.20;99.90;;;;;;5006710;28;20432;-75
2021/10/06 12:04:11;;;;;;;7.22;1.20;;;13.10;99.90;;;;;;4992453;28;20119;-78
2021/10/06 12:06:37;;;;;;;10.00;0.90;;;13.10;99.90;;;;;;5007630;28;20401;-79
2021/10/06 12:09:09;;;;;;;10.95;1.10;;;13.10;99.90;;;;;;4992420;28;20500;-80
2021/10/06 12:11:36;;;;;;;9.38;1.45;;;13.10;99.90;;;;;;4992761;28;20023;-76
2021/10/06 12:14:24;;;;;;;6.28;1.00;;;13.10;99.90;;;;;;4992410;28;20022;-79
2021/10/06 12:17:00;;;;;;;10.43;1.60;;;13.10;99.90;;;;;;5000192;28;20018;-80
2021/10/06 12:19:26;;;;;;;8.10;1.00;;;13.20;99.90;;;;;;5010417;28;20034;-81
2021/10/06 12:21:53;;;;;;;6.47;1.35;;;13.20;99.90;;;;;;4995923;28;20027;-80
2021/10/06 12:24:23;;;;;;;7.65;1.88;;;13.30;99.90;;;;;;5004251;28;20535;-76
2021/10/06 12:26:49;;;;;;;7.00;1.52;;;13.40;99.90;;;;;;5019291;28;20129;-77
2021/10/06 12:29:18;;;;;;;7.25;1.20;;;13.40;99.90;;;;;;5015201;28;20485;-81
2021/10/06 12:31:44;;;;;;;6.35;0.77;;;13.40;99.90;;;;;;5015583;28;20085;-81
2021/10/06 12:34:23;;;;;;;6.93;1.45;;;13.40;99.90;;;;;;5001423;28;20038;-82
2021/10/06 12:36:52;;;;;;;5.38;0.80;;;13.40;99.90;;;;;;4995137;28;20041;-81
2021/10/06 12:39:21;;;;;;;4.55;0.77;;;13.40;99.90;;;;;;4994220;28;20384;-83
2021/10/06 12:41:52;;;;;;;7.07;0.82;;;13.40;99.90;;;;;;5010245;28;20025;-77
2021/10/06 12:44:27;;;;;;;5.32;0.73;;;13.40;99.90;;;;;;5007461;28;20030;-75
2021/10/06 12:46:57;;;;;;;7.00;1.60;;;13.40;99.90;;;;;;4994590;28;20054;-82
2021/10/06 12:49:24;;;;;;;4.35;0.95;;;13.40;99.90;;;;;;4995656;28;20062;-74